Bilston, United Kingdom
Current Conditions -  °F | °C
As of 2:20 PM on Thursday 23 Oct 2014 (Local Time) from EGBB Reporting Station
Broken Clouds Broken Clouds  
Wind Chill: 15°   Ceiling: 3000
Heat Index: 15°   Visibility: 6mi
Dew Point: 12°   Wind: 10mph
Humidity: 82%   Direction: 210°SSW
Pressure: 30"   Gusts: NA
Location:  52.56°N, 2.07°W
Report Text: EGBB 231320Z 21009KT 170V250 9999 SCT014 BKN030 15/12 Q1016
Loading
Personal Weather Stations






























Interactive Weather Map
Tropical Storm Tracking
New forecast layout! Learn more

10-Day Weather Forecast

Advertisements
Track Severe Weather on mobile